Terminal Aerodrome Forecast
Issued by NWS Twin Cities, MN

Home | Current Version | Previous Version | Text Only | Print | Product List | Glossary On
Versions: 1 2 3 4 5 6 7 8 9 10 11 12 13 14 15 16 17 18 19 20
811
FTUS43 KMPX 051742
TAFSTC
TAF
KSTC 051742Z 0518/0618 12009KT P6SM BKN100
     FM052200 15010KT P6SM VCSH OVC040
     FM060200 16012KT P6SM OVC025
     FM060600 22014G23KT P6SM OVC025
     FM061500 24019G30KT 4SM -SHSN OVC020
      TEMPO 0615/0618 1SM -SHSN OVC012=

USA.gov is the U.S. government's official web portal to all federal, state and local government web resources and services.